Time;durP1;ratioP1;P1;durP2;ratioP2;P2;SDS_P1;SDS_P2;PMS_P1;PMS_P2;Temp;Humidity;BMP_temperature;BMP_pressure;BME280_temperature;BME280_humidity;BME280_pressure;Samples;Min_cycle;Max_cycle;Signal;HPM_P1;HPM_P2
2023/12/30 00:00:14;;;;;;;8.93;1.60;;;8.90;99.90;;;;;;6338573;22;20064;-92
2023/12/30 00:02:41;;;;;;;12.07;1.70;;;8.90;99.90;;;;;;6340367;22;19998;-90
2023/12/30 00:05:07;;;;;;;7.97;1.58;;;8.80;99.90;;;;;;6343442;22;20002;-92
2023/12/30 00:07:33;;;;;;;6.63;1.35;;;8.90;99.90;;;;;;6346592;22;20006;-92
2023/12/30 00:10:00;;;;;;;8.32;1.45;;;8.90;99.90;;;;;;6355362;22;20003;-92
2023/12/30 00:12:38;;;;;;;10.45;2.03;;;8.90;99.90;;;;;;6344555;22;20042;-92
2023/12/30 00:15:13;;;;;;;7.40;1.30;;;8.60;99.90;;;;;;6345001;22;20323;-93
2023/12/30 00:17:39;;;;;;;11.23;1.90;;;8.90;99.90;;;;;;6344158;22;20002;-92
2023/12/30 00:20:22;;;;;;;14.90;1.85;;;9.80;99.90;;;;;;6348287;22;20003;-92
2023/12/30 00:22:48;;;;;;;3.70;1.23;;;8.90;99.90;;;;;;6342542;22;19998;-92
2023/12/30 00:25:34;;;;;;;7.60;1.25;;;9.80;99.90;;;;;;6362913;22;20013;-94
2023/12/30 00:28:01;;;;;;;7.28;1.40;;;9.70;99.90;;;;;;6344588;22;19999;-92
2023/12/30 00:30:27;;;;;;;6.50;1.35;;;8.90;99.90;;;;;;6343755;22;20025;-95
2023/12/30 00:32:53;;;;;;;11.35;2.30;;;8.90;99.90;;;;;;6344754;22;20473;-93
2023/12/30 00:35:24;;;;;;;10.90;1.90;;;8.90;99.90;;;;;;6345046;22;20003;-94
2023/12/30 00:37:53;;;;;;;10.25;1.25;;;8.90;99.90;;;;;;6343072;22;20098;-94
2023/12/30 00:40:21;;;;;;;6.30;1.08;;;9.90;99.90;;;;;;6341621;22;20086;-91
2023/12/30 00:42:48;;;;;;;7.40;1.23;;;8.90;99.90;;;;;;6340789;22;20006;-93
2023/12/30 00:45:27;;;;;;;4.32;1.52;;;9.20;99.90;;;;;;6346496;22;20021;-93
2023/12/30 00:47:56;;;;;;;7.88;1.65;;;9.30;99.90;;;;;;6342882;22;19999;-92
2023/12/30 00:50:21;;;;;;;12.25;2.22;;;9.70;99.90;;;;;;6340928;22;20410;-94
2023/12/30 00:52:52;;;;;;;5.57;1.73;;;9.20;99.90;;;;;;6341525;22;20074;-93
2023/12/30 00:55:19;;;;;;;8.98;1.63;;;9.70;99.90;;;;;;6342704;22;19998;-93
2023/12/30 00:58:02;;;;;;;10.25;1.92;;;10.10;99.90;;;;;;6338996;22;20002;-93
2023/12/30 01:00:34;;;;;;;11.18;2.00;;;8.80;99.90;;;;;;6340227;22;20007;-93
2023/12/30 01:02:59;;;;;;;13.65;1.52;;;8.80;99.90;;;;;;6312951;22;20502;-93
2023/12/30 01:05:25;;;;;;;10.35;1.83;;;9.80;99.90;;;;;;6340519;22;20006;-93
2023/12/30 01:07:50;;;;;;;9.38;1.50;;;8.90;99.90;;;;;;6340055;22;20003;-93
2023/12/30 01:10:19;;;;;;;13.25;1.95;;;9.00;99.90;;;;;;6341232;22;19999;-92
2023/12/30 01:12:49;;;;;;;3.72;1.20;;;8.80;99.90;;;;;;6340920;22;20002;-92
2023/12/30 01:15:15;;;;;;;11.70;1.75;;;8.70;99.90;;;;;;6348033;22;20430;-93
2023/12/30 01:17:50;;;;;;;7.47;1.30;;;8.80;99.90;;;;;;6342749;22;20010;-93
2023/12/30 01:20:15;;;;;;;13.75;1.88;;;7.80;99.90;;;;;;6357821;22;20006;-93
2023/12/30 01:22:41;;;;;;;3.97;1.13;;;8.70;99.90;;;;;;6363702;22;20019;-93
2023/12/30 01:25:08;;;;;;;6.90;1.40;;;9.40;99.90;;;;;;6360896;22;20014;-92
2023/12/30 01:27:35;;;;;;;8.18;1.23;;;8.70;99.90;;;;;;6339304;22;19995;-91
2023/12/30 01:30:00;;;;;;;8.10;1.75;;;10.10;99.90;;;;;;6339408;22;20430;-91
2023/12/30 01:32:35;;;;;;;9.48;1.45;;;9.70;99.90;;;;;;6338968;22;20010;-93
2023/12/30 01:35:28;;;;;;;9.23;2.03;;;10.00;99.90;;;;;;6339729;22;20415;-91
2023/12/30 01:38:45;;;;;;;5.80;1.00;;;8.70;99.90;;;;;;6339501;22;20051;-91
2023/12/30 01:41:36;;;;;;;11.18;2.35;;;8.60;99.90;;;;;;6334246;22;20030;-92
2023/12/30 01:44:13;;;;;;;6.90;1.77;;;8.70;99.90;;;;;;6342171;22;20003;-90
2023/12/30 01:46:43;;;;;;;8.10;1.63;;;9.60;99.90;;;;;;6339174;22;20068;-91
2023/12/30 01:49:26;;;;;;;9.60;1.73;;;9.40;99.90;;;;;;6339542;22;20003;-91
2023/12/30 01:51:53;;;;;;;13.90;1.98;;;9.40;99.90;;;;;;6349720;22;20003;-91
2023/12/30 01:54:35;;;;;;;8.70;1.88;;;9.40;99.90;;;;;;6350565;22;20050;-90
2023/12/30 02:00:44;;;;;;;9.10;1.80;;;8.70;99.90;;;;;;6339185;22;20026;-91
2023/12/30 02:03:10;;;;;;;8.65;1.40;;;8.70;99.90;;;;;;6338908;22;20018;-93
2023/12/30 02:05:59;;;;;;;5.28;1.80;;;9.80;99.90;;;;;;6339850;22;19999;-93
2023/12/30 02:08:50;;;;;;;8.75;1.45;;;8.70;99.90;;;;;;6339962;22;20041;-92
2023/12/30 02:11:26;;;;;;;8.93;1.45;;;8.60;99.90;;;;;;6340136;22;20017;-92
2023/12/30 02:17:40;;;;;;;7.93;1.60;;;8.60;99.90;;;;;;6344546;22;20010;-92
2023/12/30 02:20:08;;;;;;;11.93;1.92;;;8.30;99.90;;;;;;6339998;22;20297;-91
2023/12/30 02:22:45;;;;;;;5.97;1.58;;;8.60;99.90;;;;;;6340349;22;20003;-91
2023/12/30 02:25:36;;;;;;;9.50;1.45;;;8.60;99.90;;;;;;6341342;22;20021;-92
2023/12/30 02:28:24;;;;;;;7.82;2.15;;;8.60;99.90;;;;;;6341708;22;20390;-91
2023/12/30 02:30:50;;;;;;;11.52;2.05;;;8.60;99.90;;;;;;6344068;22;20010;-91
2023/12/30 02:33:30;;;;;;;10.27;1.85;;;9.50;99.90;;;;;;6363221;22;20269;-92
2023/12/30 02:36:01;;;;;;;9.17;1.40;;;8.60;99.90;;;;;;6348404;22;20002;-93
2023/12/30 02:38:33;;;;;;;8.77;1.75;;;8.60;99.90;;;;;;6341264;22;20014;-91
2023/12/30 02:40:58;;;;;;;6.03;1.40;;;8.90;99.90;;;;;;6341364;22;20018;-91
2023/12/30 02:43:25;;;;;;;5.28;1.35;;;8.70;99.90;;;;;;6341269;22;19999;-93
2023/12/30 02:45:55;;;;;;;9.88;1.45;;;8.70;99.90;;;;;;6341593;22;20007;-91
2023/12/30 02:48:22;;;;;;;11.95;2.50;;;8.70;99.90;;;;;;6341217;22;20277;-92
2023/12/30 02:50:48;;;;;;;16.17;1.98;;;8.70;99.90;;;;;;6341756;22;19998;-92
2023/12/30 02:53:20;;;;;;;7.82;1.80;;;8.80;99.90;;;;;;6340201;22;20465;-92
2023/12/30 02:56:06;;;;;;;7.30;2.17;;;8.60;99.90;;;;;;6341876;22;20001;-92
2023/12/30 02:58:32;;;;;;;6.13;1.58;;;8.70;99.90;;;;;;6341399;22;20006;-94
2023/12/30 03:00:58;;;;;;;9.65;1.70;;;8.70;99.90;;;;;;6340979;22;20092;-92
2023/12/30 03:03:25;;;;;;;7.05;1.60;;;8.70;99.90;;;;;;6341014;22;20070;-92
2023/12/30 03:06:00;;;;;;;9.55;1.95;;;9.50;99.90;;;;;;6341153;22;20324;-93
2023/12/30 03:08:25;;;;;;;12.00;1.33;;;8.80;99.90;;;;;;6344351;22;20081;-93
2023/12/30 03:14:20;;;;;;;4.50;1.50;;;8.70;99.90;;;;;;6340965;22;20011;-91
2023/12/30 03:16:46;;;;;;;9.23;1.77;;;9.30;99.90;;;;;;6346211;22;20007;-92
2023/12/30 03:19:35;;;;;;;11.50;1.80;;;8.80;99.90;;;;;;6361920;22;20011;-92
2023/12/30 03:22:03;;;;;;;11.73;1.80;;;8.80;99.90;;;;;;6343762;22;20082;-92
2023/12/30 03:24:30;;;;;;;9.85;1.25;;;8.70;99.90;;;;;;6340798;22;20056;-92
2023/12/30 03:26:57;;;;;;;8.55;1.73;;;8.90;99.90;;;;;;6340875;22;19999;-92
2023/12/30 03:29:24;;;;;;;4.97;1.05;;;8.70;99.90;;;;;;6340955;22;19995;-92
2023/12/30 03:31:52;;;;;;;8.82;2.00;;;8.70;99.90;;;;;;6341249;22;20007;-91
2023/12/30 03:34:18;;;;;;;9.95;2.15;;;9.40;99.90;;;;;;6345758;22;20006;-91
2023/12/30 03:36:43;;;;;;;6.10;2.05;;;9.70;99.90;;;;;;6363478;22;20007;-91
2023/12/30 03:39:11;;;;;;;17.63;2.13;;;9.70;99.90;;;;;;6362058;22;20011;-93
2023/12/30 03:41:44;;;;;;;14.55;2.00;;;9.20;99.90;;;;;;6341137;22;20019;-91
2023/12/30 03:44:09;;;;;;;13.57;2.47;;;9.00;99.90;;;;;;6339878;22;20002;-92
2023/12/30 03:46:35;;;;;;;10.57;1.98;;;10.10;99.90;;;;;;6339918;22;20350;-91
2023/12/30 03:49:15;;;;;;;5.72;1.42;;;8.60;99.90;;;;;;6340563;22;20003;-92
2023/12/30 03:51:49;;;;;;;9.45;1.88;;;9.50;99.90;;;;;;6340492;22;20032;-90
2023/12/30 03:54:17;;;;;;;9.60;2.35;;;8.60;99.90;;;;;;6345097;22;20056;-92
2023/12/30 03:56:43;;;;;;;9.77;2.08;;;9.60;99.90;;;;;;6344360;22;20033;-92
2023/12/30 03:59:08;;;;;;;8.27;1.42;;;8.60;99.90;;;;;;6340729;22;20011;-92
2023/12/30 04:01:35;;;;;;;9.00;1.60;;;8.60;99.90;;;;;;6340140;22;19995;-91
2023/12/30 04:04:10;;;;;;;13.95;2.08;;;8.50;99.90;;;;;;6344156;22;20033;-91
2023/12/30 04:06:37;;;;;;;7.90;2.05;;;8.50;99.90;;;;;;6340449;22;19999;-92
2023/12/30 04:09:03;;;;;;;11.55;1.63;;;8.50;99.90;;;;;;6340946;22;19995;-91
2023/12/30 04:11:43;;;;;;;8.43;1.40;;;8.50;99.90;;;;;;6340049;22;20423;-91
2023/12/30 04:14:12;;;;;;;10.63;2.13;;;9.50;99.90;;;;;;6340962;22;20013;-93
2023/12/30 04:16:51;;;;;;;10.93;2.20;;;8.50;99.90;;;;;;6340379;22;20069;-92
2023/12/30 04:19:18;;;;;;;8.43;2.08;;;8.50;99.90;;;;;;6340969;22;20060;-91
2023/12/30 04:21:44;;;;;;;8.27;1.70;;;8.50;99.90;;;;;;6350571;22;19983;-93
2023/12/30 04:24:18;;;;;;;8.82;1.83;;;8.50;99.90;;;;;;6358262;22;20024;-93
2023/12/30 04:26:58;;;;;;;9.45;1.92;;;9.60;99.90;;;;;;6342367;22;20019;-92
2023/12/30 04:29:39;;;;;;;7.68;1.83;;;9.10;99.90;;;;;;6341537;22;20005;-93
2023/12/30 04:32:05;;;;;;;5.70;1.15;;;9.50;99.90;;;;;;6343003;22;19999;-89
2023/12/30 04:34:35;;;;;;;9.60;1.65;;;8.50;99.90;;;;;;6343621;22;20027;-92
2023/12/30 04:37:05;;;;;;;4.67;1.50;;;9.20;99.90;;;;;;6341025;22;20015;-91
2023/12/30 04:39:31;;;;;;;8.85;2.00;;;8.80;99.90;;;;;;6340911;22;20423;-91
2023/12/30 04:41:59;;;;;;;9.80;1.98;;;8.50;99.90;;;;;;6339319;22;20014;-92
2023/12/30 04:44:41;;;;;;;12.32;2.30;;;8.80;99.90;;;;;;6339986;22;19998;-92
2023/12/30 04:47:08;;;;;;;5.05;1.15;;;8.30;99.90;;;;;;6341170;22;20101;-92
2023/12/30 04:49:41;;;;;;;8.70;1.48;;;9.60;99.90;;;;;;6342344;22;20006;-92
2023/12/30 04:52:13;;;;;;;7.53;1.80;;;9.50;99.90;;;;;;6340602;22;20010;-92
2023/12/30 04:54:56;;;;;;;11.35;2.53;;;8.40;99.90;;;;;;6340180;22;20427;-92
2023/12/30 04:57:23;;;;;;;10.48;2.30;;;8.90;99.90;;;;;;6340769;22;20048;-91
2023/12/30 04:59:58;;;;;;;8.07;1.30;;;9.20;99.90;;;;;;6341224;22;20431;-92
2023/12/30 05:02:34;;;;;;;9.20;2.17;;;8.00;99.90;;;;;;6338981;22;20308;-92
2023/12/30 05:05:06;;;;;;;10.57;1.75;;;9.20;99.90;;;;;;6340623;22;20026;-93
2023/12/30 05:07:39;;;;;;;8.20;1.50;;;8.40;99.90;;;;;;6340400;22;20073;-93
2023/12/30 05:10:13;;;;;;;12.63;1.52;;;9.40;99.90;;;;;;6339498;22;20128;-93
2023/12/30 05:12:53;;;;;;;6.75;1.30;;;8.40;99.90;;;;;;6342342;22;19994;-92
2023/12/30 05:15:22;;;;;;;12.77;1.57;;;9.50;99.90;;;;;;6345857;22;20003;-93
2023/12/30 05:17:59;;;;;;;8.95;1.40;;;8.60;99.90;;;;;;6361542;22;20025;-93
2023/12/30 05:20:29;;;;;;;5.70;1.40;;;9.00;99.90;;;;;;6339733;22;20051;-92
2023/12/30 05:23:01;;;;;;;8.30;1.80;;;9.40;99.90;;;;;;6363597;22;20517;-92
2023/12/30 05:25:32;;;;;;;14.15;1.75;;;9.30;99.90;;;;;;6343897;22;19999;-92
2023/12/30 05:28:00;;;;;;;9.85;1.88;;;8.30;99.90;;;;;;6342151;22;20026;-93
2023/12/30 05:30:25;;;;;;;8.95;2.17;;;8.30;99.90;;;;;;6340541;22;19998;-92
2023/12/30 05:32:55;;;;;;;8.43;2.00;;;9.50;99.90;;;;;;6340048;22;19999;-90
2023/12/30 05:35:21;;;;;;;6.87;1.97;;;9.40;99.90;;;;;;6341412;22;20460;-91
2023/12/30 05:38:12;;;;;;;8.68;1.85;;;9.40;99.90;;;;;;6360537;22;20028;-91
2023/12/30 05:40:44;;;;;;;7.25;2.00;;;8.30;99.90;;;;;;6342255;22;20042;-92
2023/12/30 05:43:11;;;;;;;9.25;2.10;;;8.50;99.90;;;;;;6340208;22;20362;-92
2023/12/30 05:45:37;;;;;;;16.40;1.90;;;8.20;99.90;;;;;;6339618;22;20006;-91
2023/12/30 05:48:10;;;;;;;8.20;1.88;;;8.20;99.90;;;;;;6340118;22;19999;-90
2023/12/30 05:50:42;;;;;;;5.70;2.20;;;9.10;99.90;;;;;;6340045;22;20010;-91
2023/12/30 05:53:10;;;;;;;10.48;2.10;;;9.00;99.90;;;;;;6339898;22;19995;-92
2023/12/30 05:55:38;;;;;;;9.27;1.88;;;9.50;99.90;;;;;;6344089;22;20003;-92
2023/12/30 05:58:04;;;;;;;8.48;1.77;;;9.00;99.90;;;;;;6342303;22;20011;-92
2023/12/30 06:00:43;;;;;;;7.93;1.52;;;9.00;99.90;;;;;;6342358;22;20356;-91
2023/12/30 06:03:13;;;;;;;11.65;2.08;;;8.50;99.90;;;;;;6339937;22;20030;-93
2023/12/30 06:05:40;;;;;;;;;;;9.10;99.90;;;;;;6340354;22;19991;-91
2023/12/30 06:08:07;;;;;;;14.38;3.47;;;8.20;99.90;;;;;;6340733;22;19899;-92
2023/12/30 06:10:36;;;;;;;7.70;1.55;;;8.50;99.90;;;;;;6339833;22;20462;-92
2023/12/30 06:13:02;;;;;;;5.72;1.45;;;9.10;99.90;;;;;;6340248;22;20002;-91
2023/12/30 06:15:34;;;;;;;10.70;2.47;;;8.10;99.90;;;;;;6339913;22;19999;-92
2023/12/30 06:18:13;;;;;;;12.73;1.65;;;8.60;99.90;;;;;;6340493;22;20003;-92
2023/12/30 06:20:39;;;;;;;13.55;2.38;;;9.30;99.90;;;;;;6340635;22;20014;-91
2023/12/30 06:23:11;;;;;;;10.52;2.55;;;8.60;99.90;;;;;;6340078;22;19999;-94
2023/12/30 06:26:00;;;;;;;8.05;1.98;;;9.20;99.90;;;;;;6340018;22;19994;-90
2023/12/30 06:28:28;;;;;;;9.68;2.08;;;8.00;99.90;;;;;;6339419;22;19999;-90
2023/12/30 06:30:54;;;;;;;13.60;2.10;;;8.90;99.90;;;;;;6339310;22;20002;-91
2023/12/30 06:33:21;;;;;;;11.77;2.03;;;8.80;99.90;;;;;;6339022;22;20019;-91
2023/12/30 06:36:08;;;;;;;16.15;2.80;;;8.10;99.90;;;;;;6338489;22;20002;-93
2023/12/30 06:38:51;;;;;;;11.05;1.67;;;8.10;99.90;;;;;;6339196;22;20736;-92
2023/12/30 06:41:20;;;;;;;12.95;1.92;;;9.10;99.90;;;;;;6339489;22;20036;-92
2023/12/30 06:43:47;;;;;;;10.50;2.42;;;8.10;99.90;;;;;;6338186;22;20096;-91
2023/12/30 06:46:33;;;;;;;8.93;1.40;;;9.20;99.90;;;;;;6338728;22;20049;-91
2023/12/30 06:49:12;;;;;;;9.93;1.73;;;8.90;99.90;;;;;;6339060;22;20003;-91
2023/12/30 06:51:42;;;;;;;6.82;1.52;;;9.00;99.90;;;;;;6338650;22;20005;-92
2023/12/30 06:54:19;;;;;;;8.30;1.90;;;8.50;99.90;;;;;;6338879;22;20097;-91
2023/12/30 06:56:44;;;;;;;9.77;2.30;;;8.70;99.90;;;;;;6339100;22;20002;-91
2023/12/30 06:59:12;;;;;;;13.02;1.80;;;9.10;99.90;;;;;;6339699;22;20015;-92
2023/12/30 07:01:41;;;;;;;6.05;1.50;;;8.90;99.90;;;;;;6342497;22;19999;-93
2023/12/30 07:04:09;;;;;;;14.43;2.25;;;8.90;99.90;;;;;;6357724;22;20007;-91
2023/12/30 07:06:36;;;;;;;14.48;1.60;;;9.10;99.90;;;;;;6359189;22;19999;-91
2023/12/30 07:09:07;;;;;;;10.52;1.92;;;9.20;99.90;;;;;;6340977;22;20010;-91
2023/12/30 07:11:35;;;;;;;;;;;8.90;99.90;;;;;;6341023;22;20419;-94
2023/12/30 07:14:01;;;;;;;6.10;1.52;;;8.20;99.90;;;;;;6340848;22;19969;-91
2023/12/30 07:16:31;;;;;;;13.55;2.30;;;9.20;99.90;;;;;;6340730;22;20006;-91
2023/12/30 07:18:58;;;;;;;19.73;3.15;;;9.10;99.90;;;;;;6340866;22;20042;-92
2023/12/30 07:21:24;;;;;;;11.55;1.75;;;9.30;99.90;;;;;;6359113;22;19987;-90
2023/12/30 07:24:11;;;;;;;9.85;1.80;;;9.00;99.90;;;;;;6343930;22;20003;-87
2023/12/30 07:29:50;;;;;;;8.27;2.10;;;8.20;99.90;;;;;;6308099;22;20038;-87
2023/12/30 07:32:16;;;;;;;9.73;2.05;;;9.00;99.90;;;;;;6314043;22;20003;-88
2023/12/30 07:34:47;;;;;;;9.70;2.38;;;8.90;99.90;;;;;;6309366;22;20010;-87
2023/12/30 07:37:21;;;;;;;6.15;1.83;;;8.90;99.90;;;;;;6306677;22;20090;-89
2023/12/30 07:43:15;;;;;;;7.10;1.63;;;8.10;99.90;;;;;;6297778;22;20348;-87
2023/12/30 07:49:21;;;;;;;11.85;2.17;;;8.00;99.90;;;;;;6313994;22;20013;-90
2023/12/30 07:51:49;;;;;;;10.45;1.73;;;7.90;99.90;;;;;;6306852;22;20420;-90
2023/12/30 07:54:29;;;;;;;12.88;2.42;;;8.10;99.90;;;;;;6312584;22;20083;-93
2023/12/30 07:57:14;;;;;;;9.87;2.37;;;8.00;99.90;;;;;;6323578;22;20022;-91
2023/12/30 07:59:55;;;;;;;10.75;3.20;;;8.90;99.90;;;;;;6321794;22;20273;-94
2023/12/30 08:06:19;;;;;;;12.85;2.67;;;8.00;99.90;;;;;;6313288;22;20057;-90
2023/12/30 08:09:12;;;;;;;13.40;3.22;;;8.00;99.90;;;;;;6309547;22;19995;-92
2023/12/30 08:11:53;;;;;;;7.85;2.30;;;7.30;99.90;;;;;;6290527;22;20027;-89
2023/12/30 08:14:41;;;;;;;13.10;1.80;;;8.70;99.90;;;;;;6309114;22;20087;-89
2023/12/30 08:17:28;;;;;;;9.73;2.13;;;7.80;99.90;;;;;;6308854;22;20056;-90
2023/12/30 08:19:54;;;;;;;16.00;2.90;;;7.90;99.90;;;;;;6307085;22;20015;-87
2023/12/30 08:22:30;;;;;;;11.00;2.97;;;7.90;99.90;;;;;;6306970;22;20045;-87
2023/12/30 08:25:26;;;;;;;8.68;2.45;;;8.50;99.90;;;;;;6307636;22;20003;-94
2023/12/30 08:28:10;;;;;;;22.35;2.72;;;7.90;99.90;;;;;;6303603;22;20008;-88
2023/12/30 08:30:37;;;;;;;8.07;2.20;;;8.00;99.90;;;;;;6307099;22;20058;-92
2023/12/30 08:36:18;;;;;;;17.48;2.83;;;7.90;99.90;;;;;;6324299;22;20026;-88
2023/12/30 08:42:13;;;;;;;14.70;2.85;;;7.90;99.90;;;;;;6287622;22;19992;-90
2023/12/30 08:45:18;;;;;;;18.77;2.95;;;7.40;99.90;;;;;;6339041;22;20034;-90
2023/12/30 08:47:53;;;;;;;13.30;3.05;;;7.90;99.90;;;;;;6258819;22;20076;-85
2023/12/30 08:50:18;;;;;;;11.60;3.22;;;8.80;99.90;;;;;;6337930;22;19998;-82
2023/12/30 08:53:03;;;;;;;17.90;3.00;;;8.00;99.90;;;;;;6337735;22;20106;-86
2023/12/30 08:55:28;;;;;;;13.10;2.30;;;8.10;99.90;;;;;;6337328;22;20070;-85
2023/12/30 08:58:21;;;;;;;20.42;3.80;;;9.00;99.90;;;;;;6338077;22;20038;-90
2023/12/30 09:01:06;;;;;;;14.27;2.75;;;8.00;99.90;;;;;;6339605;22;20006;-90
2023/12/30 09:03:35;;;;;;;19.25;2.75;;;8.10;99.90;;;;;;6340810;22;20006;-91
2023/12/30 09:12:09;;;;;;;8.65;2.35;;;8.10;99.90;;;;;;6331974;22;20033;-87
2023/12/30 09:14:59;;;;;;;16.65;3.53;;;8.70;99.90;;;;;;6330301;22;20430;-92
2023/12/30 09:17:44;;;;;;;12.43;2.95;;;7.80;99.90;;;;;;6339988;22;20449;-88
2023/12/30 09:20:10;;;;;;;15.70;3.10;;;9.20;99.90;;;;;;6338085;22;20022;-86
2023/12/30 09:23:22;;;;;;;14.00;2.67;;;8.30;99.90;;;;;;6338040;22;20048;-93
2023/12/30 15:21:22;;;;;;;11.85;3.03;;;10.10;99.90;;;;;;6357023;22;20033;-88
2023/12/30 15:24:16;;;;;;;11.30;2.60;;;10.00;99.90;;;;;;6336948;22;20098;-89
2023/12/30 15:26:42;;;;;;;10.18;3.30;;;10.10;99.90;;;;;;6336836;22;20065;-90
2023/12/30 15:29:08;;;;;;;8.40;3.22;;;10.10;99.90;;;;;;6316511;22;20019;-90
2023/12/30 15:31:37;;;;;;;8.95;3.38;;;10.10;99.90;;;;;;6249958;22;20029;-89
2023/12/30 15:36:47;;;;;;;8.85;3.30;;;10.20;99.90;;;;;;6338205;22;20390;-92
2023/12/30 15:39:15;;;;;;;15.07;5.07;;;10.20;99.90;;;;;;6336041;22;20494;-85
2023/12/30 15:42:28;;;;;;;17.40;4.82;;;11.60;99.90;;;;;;6337073;22;20002;-87
2023/12/30 15:44:53;;;;;;;13.02;3.83;;;9.50;99.90;;;;;;6338543;22;20029;-87
2023/12/30 15:47:31;;;;;;;12.93;3.70;;;10.90;99.90;;;;;;6337588;22;20073;-89
2023/12/30 15:50:21;;;;;;;12.93;6.25;;;10.20;99.90;;;;;;6338390;22;19998;-89
2023/12/30 15:52:50;;;;;;;10.25;4.82;;;10.20;99.90;;;;;;6338036;22;20003;-89
2023/12/30 15:55:25;;;;;;;12.40;3.90;;;10.20;99.90;;;;;;6338424;22;20003;-88
2023/12/30 15:57:55;;;;;;;11.82;3.25;;;11.30;99.90;;;;;;6355224;22;20007;-89
2023/12/30 16:00:33;;;;;;;12.40;3.87;;;11.00;99.90;;;;;;6340883;22;20060;-88
2023/12/30 16:03:00;;;;;;;9.35;3.47;;;10.30;99.90;;;;;;6339251;22;20002;-90
2023/12/30 16:05:42;;;;;;;8.38;3.28;;;9.90;99.90;;;;;;6338786;22;20022;-86
2023/12/30 16:08:29;;;;;;;12.32;3.92;;;11.00;99.90;;;;;;6338347;22;20070;-90
2023/12/30 16:10:55;;;;;;;15.10;4.43;;;10.30;99.90;;;;;;6336308;22;20052;-89
2023/12/30 16:13:41;;;;;;;11.27;3.88;;;10.30;99.90;;;;;;6335478;22;20006;-89
2023/12/30 16:16:27;;;;;;;13.73;3.22;;;11.00;99.90;;;;;;6338415;22;20006;-88
2023/12/30 16:18:56;;;;;;;13.75;3.88;;;10.30;99.90;;;;;;6337876;22;20074;-90
2023/12/30 16:25:40;;;;;;;9.95;3.83;;;10.20;99.90;;;;;;6343828;22;20494;-88
2023/12/30 16:28:05;;;;;;;8.43;3.58;;;10.30;99.90;;;;;;6337703;22;20014;-88
2023/12/30 16:30:57;;;;;;;13.35;3.85;;;11.20;99.90;;;;;;6338607;22;20003;-92
2023/12/30 16:33:26;;;;;;;14.45;3.28;;;9.90;99.90;;;;;;6344027;22;19995;-90
2023/12/30 16:36:11;;;;;;;11.98;5.30;;;11.20;99.90;;;;;;6339371;22;20335;-91
2023/12/30 16:38:49;;;;;;;9.10;3.05;;;10.70;99.90;;;;;;6336492;22;20013;-87
2023/12/30 16:41:27;;;;;;;7.43;2.80;;;11.50;99.90;;;;;;6338101;22;20007;-89
2023/12/30 16:43:57;;;;;;;7.57;3.28;;;11.10;99.90;;;;;;6339735;22;20002;-91
2023/12/30 16:46:27;;;;;;;7.60;2.72;;;10.80;99.90;;;;;;6344521;22;20019;-91
2023/12/30 16:48:54;;;;;;;5.72;2.33;;;11.30;99.90;;;;;;6360322;22;20015;-90
2023/12/30 16:51:31;;;;;;;10.02;3.13;;;9.60;99.90;;;;;;6353198;22;19999;-88
2023/12/30 16:54:08;;;;;;;10.82;3.75;;;10.40;99.90;;;;;;6341443;22;19999;-87
2023/12/30 16:56:36;;;;;;;12.68;7.47;;;10.30;99.90;;;;;;6334879;22;20080;-89
2023/12/30 16:59:17;;;;;;;17.17;9.10;;;10.40;99.90;;;;;;6337666;22;20064;-90
2023/12/30 17:01:49;;;;;;;11.70;4.85;;;11.70;99.90;;;;;;6338207;22;20021;-87
2023/12/30 17:04:19;;;;;;;8.68;3.80;;;11.00;99.90;;;;;;6339611;22;19991;-87
2023/12/30 17:06:49;;;;;;;8.77;3.13;;;10.90;99.90;;;;;;6338293;22;20010;-85
2023/12/30 17:09:27;;;;;;;10.52;3.78;;;11.10;99.90;;;;;;6338323;22;20427;-88
2023/12/30 17:12:00;;;;;;;12.15;5.05;;;10.90;99.90;;;;;;6338466;22;20014;-87
2023/12/30 17:14:26;;;;;;;11.30;7.28;;;11.20;99.90;;;;;;6337278;22;20006;-85
2023/12/30 17:17:35;;;;;;;15.57;7.65;;;10.70;99.90;;;;;;6340668;22;20010;-87
2023/12/30 17:20:17;;;;;;;10.07;6.57;;;10.20;99.90;;;;;;6345732;22;20007;-87
2023/12/30 17:22:43;;;;;;;10.73;4.15;;;10.30;99.90;;;;;;6339111;22;20373;-91
2023/12/30 17:25:13;;;;;;;5.85;3.72;;;10.30;99.90;;;;;;6340689;22;19999;-89
2023/12/30 17:27:52;;;;;;;9.05;4.45;;;10.20;99.90;;;;;;6338917;22;20077;-91
2023/12/30 17:30:21;;;;;;;13.07;6.00;;;11.30;99.90;;;;;;6338469;22;20002;-86
2023/12/30 17:32:54;;;;;;;13.85;7.18;;;11.10;99.90;;;;;;6338272;22;19994;-91
2023/12/30 17:35:26;;;;;;;18.60;7.55;;;10.20;99.90;;;;;;6339447;22;19998;-93
2023/12/30 17:37:53;;;;;;;11.13;7.15;;;10.30;99.90;;;;;;6337133;22;20074;-89
2023/12/30 17:40:20;;;;;;;9.35;5.30;;;11.30;99.90;;;;;;6343649;22;20006;-92
2023/12/30 17:42:46;;;;;;;6.85;3.38;;;9.90;99.90;;;;;;6342736;22;20348;-87
2023/12/30 17:45:29;;;;;;;6.82;2.75;;;10.30;99.90;;;;;;6339017;22;20006;-83
2023/12/30 17:47:55;;;;;;;9.13;2.92;;;10.40;99.90;;;;;;6336964;22;20003;-87
2023/12/30 17:50:20;;;;;;;7.63;3.25;;;10.60;99.90;;;;;;6336114;22;20044;-89
2023/12/30 17:53:08;;;;;;;10.38;4.18;;;10.20;99.90;;;;;;6337127;22;20002;-91
2023/12/30 17:55:55;;;;;;;4.50;3.17;;;10.30;99.90;;;;;;6332959;22;20673;-88
2023/12/30 17:58:21;;;;;;;9.70;4.25;;;10.20;99.90;;;;;;6337404;22;20011;-86
2023/12/30 18:01:05;;;;;;;10.02;3.38;;;10.80;99.90;;;;;;6338040;22;20013;-88
2023/12/30 18:04:05;;;;;;;4.28;2.80;;;10.40;99.90;;;;;;6337831;22;20003;-88
2023/12/30 18:06:31;;;;;;;8.30;4.10;;;10.30;99.90;;;;;;6242477;23;20004;-91
2023/12/30 18:09:05;;;;;;;8.93;3.65;;;11.30;99.90;;;;;;6244072;23;20366;-84
2023/12/30 18:11:43;;;;;;;7.78;4.35;;;10.40;99.90;;;;;;6243058;23;20001;-88
2023/12/30 18:14:11;;;;;;;4.70;3.00;;;10.90;99.90;;;;;;6242174;23;20030;-89
2023/12/30 18:17:01;;;;;;;7.53;2.70;;;10.90;99.90;;;;;;6241061;23;20011;-89
2023/12/30 18:19:27;;;;;;;12.60;3.45;;;10.30;99.90;;;;;;6241091;23;20036;-88
2023/12/30 18:21:58;;;;;;;6.07;2.67;;;10.60;99.90;;;;;;6241829;23;20042;-89
2023/12/30 18:24:25;;;;;;;10.13;4.22;;;11.80;99.90;;;;;;6241625;23;20008;-91
2023/12/30 18:26:53;;;;;;;16.70;8.45;;;11.40;99.90;;;;;;6241224;23;20000;-85
2023/12/30 18:29:22;;;;;;;7.70;4.50;;;11.10;99.90;;;;;;6241818;23;20008;-88
2023/12/30 18:31:48;;;;;;;7.32;4.85;;;11.10;99.90;;;;;;6241699;23;20005;-87
2023/12/30 18:34:14;;;;;;;11.00;3.53;;;11.00;99.90;;;;;;6241694;23;20027;-88
2023/12/30 18:36:41;;;;;;;5.45;3.25;;;11.10;99.90;;;;;;6241517;23;20530;-87
2023/12/30 18:39:25;;;;;;;13.88;8.45;;;10.30;99.90;;;;;;6253410;23;19996;-89
2023/12/30 18:42:13;;;;;;;17.70;11.80;;;10.70;99.90;;;;;;6267388;22;20012;-92
2023/12/30 18:44:48;;;;;;;11.88;7.93;;;10.30;99.90;;;;;;6339123;22;19999;-93
2023/12/30 18:47:22;;;;;;;9.63;5.40;;;10.70;99.90;;;;;;6339929;22;20074;-92
2023/12/30 18:50:01;;;;;;;11.02;5.55;;;10.30;99.90;;;;;;6344243;22;20009;-92
2023/12/30 18:52:27;;;;;;;8.10;3.50;;;10.80;99.90;;;;;;6350086;22;20007;-93
2023/12/30 18:54:53;;;;;;;8.52;4.00;;;11.40;99.90;;;;;;6347319;22;20077;-92
2023/12/30 18:57:36;;;;;;;8.48;3.90;;;10.20;99.90;;;;;;6345146;22;20046;-92
2023/12/30 19:00:10;;;;;;;8.15;3.92;;;10.30;99.90;;;;;;6344144;22;20018;-92
2023/12/30 19:02:41;;;;;;;12.90;4.32;;;10.20;99.90;;;;;;6337599;22;20064;-92
2023/12/30 19:05:26;;;;;;;8.27;4.50;;;10.20;99.90;;;;;;6338245;22;20010;-88
2023/12/30 19:07:58;;;;;;;12.65;5.53;;;10.20;99.90;;;;;;6334814;22;20320;-86
2023/12/30 19:10:28;;;;;;;12.45;5.78;;;10.20;99.90;;;;;;6337403;22;20014;-88
2023/12/30 19:13:01;;;;;;;9.50;5.00;;;10.20;99.90;;;;;;6335906;22;20003;-90
2023/12/30 19:15:27;;;;;;;6.82;3.65;;;10.10;99.90;;;;;;6337045;22;20504;-88
2023/12/30 19:17:56;;;;;;;6.55;3.92;;;11.20;99.90;;;;;;6336491;22;20006;-87
2023/12/30 19:20:25;;;;;;;7.40;3.30;;;11.00;99.90;;;;;;6335143;22;20406;-89
2023/12/30 19:22:54;;;;;;;7.88;3.42;;;10.40;99.90;;;;;;6337301;22;20042;-89
2023/12/30 19:25:20;;;;;;;10.15;4.72;;;11.00;99.90;;;;;;6340078;22;20002;-91
2023/12/30 19:27:45;;;;;;;7.78;4.32;;;10.70;99.90;;;;;;6338025;22;20003;-90
2023/12/30 19:30:26;;;;;;;7.90;4.05;;;11.00;99.90;;;;;;6339166;22;20003;-91
2023/12/30 19:32:54;;;;;;;4.20;3.17;;;10.10;99.90;;;;;;6337301;22;20307;-87
2023/12/30 19:35:32;;;;;;;4.90;3.63;;;11.20;99.90;;;;;;6338038;22;19995;-92
2023/12/30 19:37:59;;;;;;;6.88;2.90;;;10.90;99.90;;;;;;6341568;22;20007;-94
2023/12/30 19:40:25;;;;;;;8.65;3.35;;;10.20;99.90;;;;;;6338888;22;20511;-88
2023/12/30 19:43:11;;;;;;;7.05;3.25;;;10.70;99.90;;;;;;6342284;22;20075;-89
2023/12/30 19:45:46;;;;;;;6.80;3.22;;;9.50;99.90;;;;;;6347010;22;20011;-91
2023/12/30 19:48:27;;;;;;;6.72;3.53;;;11.10;99.90;;;;;;6340855;22;20286;-89
2023/12/30 19:50:53;;;;;;;7.05;2.55;;;10.30;99.90;;;;;;6336347;22;20340;-92
2023/12/30 19:53:47;;;;;;;6.90;2.28;;;10.90;99.90;;;;;;6338438;22;20006;-92
2023/12/30 19:56:30;;;;;;;3.83;2.22;;;9.60;99.90;;;;;;6336761;22;20023;-89
2023/12/30 19:58:55;;;;;;;4.95;2.20;;;10.20;99.90;;;;;;6337526;22;20018;-90
2023/12/30 20:01:21;;;;;;;10.07;5.30;;;10.80;99.90;;;;;;6354101;22;20007;-88